createdAt,value
2023-03-06T00:00:21.821Z,2.30
2023-03-06T00:02:48.463Z,2.03
2023-03-06T00:05:15.782Z,2.03
2023-03-06T00:07:43.071Z,1.92
2023-03-06T00:10:13.859Z,2.17
2023-03-06T00:12:40.238Z,1.90
2023-03-06T00:15:07.345Z,2.10
2023-03-06T00:17:33.717Z,2.08
2023-03-06T00:20:00.078Z,1.98
2023-03-06T00:22:26.455Z,2.10
2023-03-06T00:24:54.030Z,1.98
2023-03-06T00:27:21.073Z,1.90
2023-03-06T00:29:49.692Z,1.92
2023-03-06T00:32:16.173Z,2.20
2023-03-06T00:34:42.511Z,1.92
2023-03-06T00:37:08.939Z,1.80
2023-03-06T00:39:35.290Z,1.93
2023-03-06T00:42:01.706Z,2.50
2023-03-06T00:44:28.059Z,2.15
2023-03-06T00:46:54.402Z,2.72
2023-03-06T00:49:20.725Z,2.40
2023-03-06T00:51:47.166Z,2.50
2023-03-06T00:54:13.604Z,2.28
2023-03-06T00:56:39.955Z,2.80
2023-03-06T00:59:06.301Z,2.55
2023-03-06T01:01:32.738Z,2.75
2023-03-06T01:03:59.086Z,2.50
2023-03-06T01:06:25.433Z,2.70
2023-03-06T01:08:51.845Z,2.35
2023-03-06T01:11:18.395Z,2.75
2023-03-06T01:13:44.917Z,2.53
2023-03-06T01:16:14.244Z,3.00
2023-03-06T01:18:41.655Z,2.90
2023-03-06T01:21:08.512Z,3.20
2023-03-06T01:23:34.942Z,3.00
2023-03-06T01:26:01.300Z,2.90
2023-03-06T01:28:27.768Z,3.10
2023-03-06T01:30:54.531Z,3.17
2023-03-06T01:33:20.991Z,3.00
2023-03-06T01:35:47.539Z,3.05
2023-03-06T01:38:14.288Z,3.30
2023-03-06T01:40:41.117Z,3.30
2023-03-06T01:43:29.550Z,3.80
2023-03-06T01:46:23.111Z,3.53
2023-03-06T01:48:54.418Z,3.10
2023-03-06T01:51:22.829Z,3.50
2023-03-06T01:53:51.099Z,3.40
2023-03-06T01:56:18.083Z,3.38
2023-03-06T01:58:44.980Z,4.05
2023-03-06T02:01:12.972Z,3.90
2023-03-06T02:03:41.458Z,3.60
2023-03-06T02:06:08.349Z,3.80
2023-03-06T02:08:34.887Z,3.72
2023-03-06T02:11:05.754Z,3.78
2023-03-06T02:13:32.434Z,3.70
2023-03-06T02:15:58.906Z,3.97
2023-03-06T02:18:25.662Z,3.30
2023-03-06T02:20:56.783Z,3.50
2023-03-06T02:23:51.030Z,3.63
2023-03-06T02:26:18.505Z,3.65
2023-03-06T02:28:44.889Z,4.07
2023-03-06T02:31:21.824Z,4.13
2023-03-06T02:34:01.010Z,4.10
2023-03-06T02:36:27.781Z,3.78
2023-03-06T02:38:54.469Z,4.40
2023-03-06T02:41:20.830Z,4.30
2023-03-06T02:43:48.342Z,4.57
2023-03-06T02:46:14.822Z,4.32
2023-03-06T02:48:41.208Z,4.05
2023-03-06T02:51:07.570Z,4.13
2023-03-06T02:53:33.954Z,4.43
2023-03-06T02:56:01.593Z,4.33
2023-03-06T02:58:28.006Z,4.18
2023-03-06T03:00:54.624Z,4.43
2023-03-06T03:03:21.177Z,4.65
2023-03-06T03:05:47.542Z,4.43
2023-03-06T03:08:13.918Z,4.53
2023-03-06T03:10:40.292Z,4.82
2023-03-06T03:13:06.735Z,4.93
2023-03-06T03:15:33.309Z,5.13
2023-03-06T03:17:59.811Z,4.75
2023-03-06T03:20:26.174Z,4.83
2023-03-06T03:22:55.210Z,4.80
2023-03-06T03:25:23.589Z,4.57
2023-03-06T03:27:50.232Z,5.13
2023-03-06T03:30:17.183Z,4.70
2023-03-06T03:32:43.761Z,5.43
2023-03-06T03:35:11.096Z,4.95
2023-03-06T03:37:37.574Z,5.05
2023-03-06T03:40:06.576Z,5.03
2023-03-06T03:42:33.012Z,5.30
2023-03-06T03:44:59.384Z,5.70
2023-03-06T03:47:25.744Z,5.07
2023-03-06T03:49:52.320Z,5.47
2023-03-06T03:52:18.707Z,5.28
2023-03-06T03:54:45.089Z,4.78
2023-03-06T03:57:11.573Z,5.07
2023-03-06T03:59:37.984Z,4.72
2023-03-06T04:02:04.881Z,5.25
2023-03-06T04:04:31.742Z,5.15
2023-03-06T04:06:58.128Z,5.10
2023-03-06T04:09:24.506Z,5.30
2023-03-06T04:11:50.870Z,4.80
2023-03-06T04:14:17.256Z,5.20
2023-03-06T04:16:43.688Z,4.65
2023-03-06T04:19:11.590Z,4.97
2023-03-06T04:21:38.001Z,4.73
2023-03-06T04:24:04.935Z,5.05
2023-03-06T04:26:31.289Z,4.63
2023-03-06T04:28:58.469Z,4.90
2023-03-06T04:31:25.079Z,5.15
2023-03-06T04:33:51.532Z,4.23
2023-03-06T04:36:25.486Z,4.72
2023-03-06T04:38:51.899Z,4.03
2023-03-06T04:41:18.260Z,4.20
2023-03-06T04:43:46.101Z,4.70
2023-03-06T04:46:12.577Z,4.40
2023-03-06T04:48:38.984Z,4.40
2023-03-06T04:51:05.933Z,4.85
2023-03-06T04:53:32.795Z,4.55
2023-03-06T04:55:59.555Z,4.57
2023-03-06T04:58:26.293Z,4.17
2023-03-06T05:00:52.665Z,5.47
2023-03-06T05:03:19.030Z,4.57
2023-03-06T05:05:45.408Z,4.70
2023-03-06T05:08:15.118Z,4.68
2023-03-06T05:10:42.842Z,4.57
2023-03-06T05:13:09.371Z,4.72
2023-03-06T05:15:35.771Z,4.57
2023-03-06T05:18:03.278Z,4.65
2023-03-06T05:20:29.637Z,4.75
2023-03-06T05:22:55.990Z,4.37
2023-03-06T05:25:22.362Z,4.72
2023-03-06T05:27:48.710Z,4.57
2023-03-06T05:30:15.420Z,4.80
2023-03-06T05:32:41.890Z,5.15
2023-03-06T05:35:08.702Z,4.70
2023-03-06T05:37:35.099Z,4.50
2023-03-06T05:40:04.165Z,4.47
2023-03-06T05:42:31.011Z,4.32
2023-03-06T05:44:57.380Z,4.53
2023-03-06T05:47:23.760Z,3.93
2023-03-06T05:49:50.314Z,4.30
2023-03-06T05:52:17.468Z,4.35
2023-03-06T05:54:43.847Z,4.60
2023-03-06T05:57:10.228Z,4.68
2023-03-06T05:59:36.607Z,4.60
2023-03-06T06:02:04.037Z,4.70
2023-03-06T06:04:30.394Z,4.75
2023-03-06T06:06:59.794Z,4.38
2023-03-06T06:09:27.078Z,5.28
2023-03-06T06:11:59.410Z,5.03
2023-03-06T06:14:25.952Z,4.97
2023-03-06T06:16:52.405Z,5.25
2023-03-06T06:19:20.059Z,4.78
2023-03-06T06:21:48.501Z,5.07
2023-03-06T06:24:16.605Z,5.10
2023-03-06T06:26:43.769Z,5.80
2023-03-06T06:29:10.985Z,6.05
2023-03-06T06:31:37.805Z,5.40
2023-03-06T06:34:05.331Z,5.35
2023-03-06T06:36:32.785Z,5.30
2023-03-06T06:38:59.841Z,4.65
2023-03-06T06:41:46.171Z,5.20
2023-03-06T06:44:15.932Z,5.18
2023-03-06T06:49:33.741Z,5.90
2023-03-06T06:52:00.187Z,5.97
2023-03-06T06:54:27.045Z,6.15
2023-03-06T06:56:53.869Z,6.18
2023-03-06T06:59:20.725Z,6.18
2023-03-06T07:01:47.190Z,5.83
2023-03-06T07:04:14.637Z,6.10
2023-03-06T07:06:41.915Z,5.72
2023-03-06T07:09:08.328Z,5.85
2023-03-06T07:11:37.305Z,6.32
2023-03-06T07:14:03.752Z,5.40
2023-03-06T07:16:30.142Z,6.32
2023-03-06T07:18:56.576Z,5.93
2023-03-06T07:21:22.993Z,5.80
2023-03-06T07:23:49.525Z,5.47
2023-03-06T07:26:15.934Z,5.53
2023-03-06T07:28:51.923Z,6.05
2023-03-06T07:31:22.040Z,5.80
2023-03-06T07:33:49.484Z,6.35
2023-03-06T07:36:16.183Z,5.88
2023-03-06T07:38:42.676Z,6.23
2023-03-06T07:41:13.325Z,6.20
2023-03-06T07:43:43.828Z,6.47
2023-03-06T07:46:12.423Z,6.53
2023-03-06T07:48:39.769Z,6.30
2023-03-06T07:51:08.600Z,6.27
2023-03-06T07:53:35.090Z,6.18
2023-03-06T07:56:08.490Z,6.45
2023-03-06T07:58:40.329Z,6.25
2023-03-06T08:01:12.815Z,5.95
2023-03-06T08:03:39.324Z,6.57
2023-03-06T08:06:10.023Z,6.07
2023-03-06T08:08:39.239Z,6.60
2023-03-06T08:11:07.146Z,6.55
2023-03-06T08:13:33.897Z,6.93
2023-03-06T08:16:00.496Z,6.33
2023-03-06T08:18:27.684Z,6.22
2023-03-06T08:21:13.676Z,6.35
2023-03-06T08:23:41.122Z,6.75
2023-03-06T08:26:11.357Z,6.38
2023-03-06T08:28:37.914Z,6.67
2023-03-06T08:31:28.898Z,6.18
2023-03-06T08:33:57.305Z,6.40
2023-03-06T08:36:24.174Z,6.45
2023-03-06T08:38:51.527Z,6.30
2023-03-06T08:41:18.095Z,5.97
2023-03-06T08:43:44.556Z,6.88
2023-03-06T08:46:11.334Z,6.75
2023-03-06T08:48:38.097Z,6.65
2023-03-06T08:51:05.025Z,6.53
2023-03-06T08:53:42.772Z,6.30
2023-03-06T08:56:30.741Z,7.35
2023-03-06T08:58:59.107Z,6.25
2023-03-06T09:01:32.034Z,5.93
2023-03-06T09:04:00.712Z,6.90
2023-03-06T09:06:29.557Z,7.23
2023-03-06T09:08:56.261Z,6.88
2023-03-06T09:11:24.319Z,6.85
2023-03-06T09:13:51.478Z,6.20
2023-03-06T09:16:17.971Z,5.93
2023-03-06T09:18:44.410Z,7.03
2023-03-06T09:21:11.494Z,6.57
2023-03-06T09:23:39.408Z,6.55
2023-03-06T09:26:07.413Z,6.20
2023-03-06T09:28:36.608Z,6.53
2023-03-06T09:31:07.750Z,5.87
2023-03-06T09:33:34.108Z,6.07
2023-03-06T09:36:02.236Z,5.90
2023-03-06T09:38:29.000Z,6.20
2023-03-06T09:41:21.037Z,6.45
2023-03-06T09:43:50.065Z,6.17
2023-03-06T09:46:19.217Z,5.57
2023-03-06T09:49:15.110Z,6.05
2023-03-06T09:51:47.362Z,5.38
2023-03-06T09:54:15.166Z,6.00
2023-03-06T09:56:48.847Z,5.40
2023-03-06T09:59:20.900Z,5.78
2023-03-06T10:02:12.622Z,5.50
2023-03-06T10:04:46.045Z,5.75
2023-03-06T10:07:18.196Z,5.97
2023-03-06T10:10:03.218Z,5.40
2023-03-06T10:12:38.886Z,5.95
2023-03-06T10:15:05.210Z,6.00
2023-03-06T10:17:37.473Z,6.07
2023-03-06T10:20:16.106Z,4.95
2023-03-06T10:23:04.985Z,5.33
2023-03-06T10:25:50.072Z,5.13
2023-03-06T10:28:21.218Z,5.13
2023-03-06T10:31:05.497Z,5.05
2023-03-06T10:33:55.521Z,5.25
2023-03-06T10:36:27.119Z,4.90
2023-03-06T10:38:55.235Z,4.90
2023-03-06T10:41:35.712Z,5.63
2023-03-06T10:44:04.974Z,5.10
2023-03-06T10:46:37.420Z,5.13
2023-03-06T10:49:31.093Z,4.70
2023-03-06T10:52:03.166Z,4.90
2023-03-06T10:54:41.520Z,5.30
2023-03-06T10:57:27.362Z,4.93
2023-03-06T10:59:59.735Z,4.60
2023-03-06T11:02:38.432Z,4.73
2023-03-06T11:05:06.266Z,5.03
2023-03-06T11:07:36.845Z,4.57
2023-03-06T11:10:19.336Z,4.60
2023-03-06T11:13:19.152Z,4.45
2023-03-06T11:15:59.518Z,4.20
2023-03-06T11:18:30.983Z,5.22
2023-03-06T11:20:57.670Z,3.95
2023-03-06T11:23:44.276Z,4.78
2023-03-06T11:26:16.757Z,4.68
2023-03-06T11:28:54.599Z,4.13
2023-03-06T11:31:28.740Z,4.18
2023-03-06T11:34:04.390Z,4.43
2023-03-06T11:36:37.094Z,4.40
2023-03-06T11:39:19.001Z,4.50
2023-03-06T11:41:57.960Z,4.70
2023-03-06T11:44:53.999Z,4.30
2023-03-06T11:47:33.329Z,4.82
2023-03-06T11:50:26.185Z,4.57
2023-03-06T11:53:04.968Z,4.15
2023-03-06T11:56:04.802Z,4.67
2023-03-06T11:58:57.998Z,3.88
2023-03-06T12:01:36.302Z,4.68
2023-03-06T12:04:14.475Z,4.03
2023-03-06T12:07:10.160Z,4.00
2023-03-06T12:09:45.406Z,3.70
2023-03-06T12:12:26.832Z,4.32
2023-03-06T12:15:15.794Z,4.47
2023-03-06T12:18:09.837Z,3.88
2023-03-06T12:20:51.474Z,4.40
2023-03-06T12:23:44.663Z,4.30
2023-03-06T12:26:19.007Z,4.45
2023-03-06T12:29:05.188Z,4.10
2023-03-06T12:31:56.935Z,3.88
2023-03-06T12:34:33.168Z,4.45
2023-03-06T12:37:02.567Z,4.17
2023-03-06T12:39:57.894Z,4.25
2023-03-06T12:43:03.397Z,4.57
2023-03-06T12:45:34.367Z,4.50
2023-03-06T12:48:01.968Z,4.70
2023-03-06T12:50:32.191Z,4.30
2023-03-06T12:53:05.534Z,4.50
2023-03-06T12:55:43.548Z,4.78
2023-03-06T12:58:27.946Z,5.35
2023-03-06T13:01:16.721Z,4.35
2023-03-06T13:04:23.967Z,4.40
2023-03-06T13:07:31.762Z,4.40
2023-03-06T13:10:22.679Z,4.90
2023-03-06T13:13:29.377Z,4.93
2023-03-06T13:16:28.991Z,4.43
2023-03-06T13:19:02.034Z,4.60
2023-03-06T13:21:56.224Z,4.95
2023-03-06T13:24:23.997Z,5.13
2023-03-06T13:27:04.550Z,5.25
2023-03-06T13:29:36.968Z,5.10
2023-03-06T13:32:03.334Z,5.60
2023-03-06T13:34:46.808Z,5.28
2023-03-06T13:37:25.238Z,5.18
2023-03-06T13:39:54.633Z,5.18
2023-03-06T13:43:00.116Z,5.18
2023-03-06T13:45:41.873Z,5.30
2023-03-06T13:48:43.156Z,5.20
2023-03-06T13:51:22.843Z,4.82
2023-03-06T13:54:20.411Z,4.80
2023-03-06T13:57:00.994Z,5.75
2023-03-06T13:59:33.024Z,5.67
2023-03-06T14:02:23.559Z,5.80
2023-03-06T14:04:58.700Z,5.35
2023-03-06T14:07:33.418Z,6.00
2023-03-06T14:10:11.041Z,5.28
2023-03-06T14:12:41.580Z,5.60
2023-03-06T14:15:21.364Z,5.30
2023-03-06T14:18:07.632Z,5.40
2023-03-06T14:20:44.466Z,5.72
2023-03-06T14:23:24.869Z,5.20
2023-03-06T14:25:56.720Z,5.20
2023-03-06T14:28:28.406Z,5.72
2023-03-06T14:30:56.792Z,5.43
2023-03-06T14:33:32.354Z,5.43
2023-03-06T14:36:02.522Z,5.43
2023-03-06T14:38:34.336Z,5.03
2023-03-06T14:41:01.900Z,5.90
2023-03-06T14:43:28.327Z,4.90
2023-03-06T14:45:59.217Z,5.15
2023-03-06T14:48:44.096Z,5.15
2023-03-06T14:51:18.104Z,4.70
2023-03-06T14:53:48.034Z,5.32
2023-03-06T14:56:18.331Z,5.20
2023-03-06T14:59:02.918Z,5.43
2023-03-06T15:01:44.057Z,4.95
2023-03-06T15:04:38.739Z,5.30
2023-03-06T15:07:10.933Z,5.43
2023-03-06T15:09:38.604Z,5.43
2023-03-06T15:12:30.632Z,5.15
2023-03-06T15:15:25.751Z,4.78
2023-03-06T15:17:52.165Z,5.70
2023-03-06T15:20:48.496Z,6.28
2023-03-06T15:23:22.325Z,5.40
2023-03-06T15:25:59.976Z,5.85
2023-03-06T15:28:32.639Z,5.60
2023-03-06T15:31:12.571Z,5.50
2023-03-06T15:33:39.022Z,5.25
2023-03-06T15:36:18.566Z,5.43
2023-03-06T15:38:46.311Z,4.60
2023-03-06T15:41:32.400Z,5.45
2023-03-06T15:44:01.261Z,4.60
2023-03-06T15:46:28.877Z,4.97
2023-03-06T15:49:03.209Z,4.93
2023-03-06T15:51:31.128Z,5.30
2023-03-06T15:54:09.913Z,4.97
2023-03-06T15:56:40.699Z,5.20
2023-03-06T15:59:11.009Z,5.40
2023-03-06T16:01:37.596Z,4.80
2023-03-06T16:04:04.088Z,5.00
2023-03-06T16:06:30.491Z,4.60
2023-03-06T16:08:56.859Z,5.43
2023-03-06T16:11:41.888Z,4.72
2023-03-06T16:14:21.017Z,5.10
2023-03-06T16:16:48.303Z,4.82
2023-03-06T16:19:25.964Z,4.57
2023-03-06T16:21:54.677Z,5.90
2023-03-06T16:24:21.030Z,5.03
2023-03-06T16:26:50.748Z,4.70
2023-03-06T16:29:22.284Z,4.70
2023-03-06T16:31:48.831Z,5.00
2023-03-06T16:34:16.144Z,4.10
2023-03-06T16:36:42.569Z,4.38
2023-03-06T16:39:17.408Z,4.50
2023-03-06T16:41:45.795Z,4.50
2023-03-06T16:44:12.921Z,4.68
2023-03-06T16:46:42.709Z,4.20
2023-03-06T16:49:15.977Z,3.83
2023-03-06T16:51:42.319Z,4.32
2023-03-06T16:54:08.819Z,4.43
2023-03-06T16:56:35.161Z,3.70
2023-03-06T16:59:01.569Z,3.93
2023-03-06T17:01:27.981Z,3.65
2023-03-06T17:03:55.184Z,3.90
2023-03-06T17:06:23.049Z,4.10
2023-03-06T17:08:50.263Z,3.80
2023-03-06T17:11:20.179Z,3.80
2023-03-06T17:13:47.580Z,4.07
2023-03-06T17:16:18.019Z,3.70
2023-03-06T17:18:45.951Z,4.03
2023-03-06T17:21:15.477Z,5.43
2023-03-06T17:23:42.061Z,4.23
2023-03-06T17:26:11.497Z,4.10
2023-03-06T17:28:38.708Z,4.18
2023-03-06T17:31:20.804Z,4.00
2023-03-06T17:33:47.890Z,4.25
2023-03-06T17:36:14.926Z,4.43
2023-03-06T17:38:42.160Z,4.70
2023-03-06T17:41:10.454Z,4.75
2023-03-06T17:43:37.726Z,4.63
2023-03-06T17:46:12.239Z,3.55
2023-03-06T17:48:39.739Z,4.23
2023-03-06T17:51:07.408Z,4.20
2023-03-06T17:53:33.920Z,4.95
2023-03-06T17:56:03.115Z,4.40
2023-03-06T17:58:29.470Z,4.85
2023-03-06T18:00:55.816Z,4.80
2023-03-06T18:03:22.537Z,5.00
2023-03-06T18:06:02.291Z,5.53
2023-03-06T18:08:29.096Z,5.07
2023-03-06T18:11:09.575Z,4.85
2023-03-06T18:13:38.736Z,4.20
2023-03-06T18:16:06.249Z,4.40
2023-03-06T18:18:33.124Z,4.75
2023-03-06T18:21:07.231Z,5.15
2023-03-06T18:23:33.629Z,4.57
2023-03-06T18:26:18.550Z,4.97
2023-03-06T18:28:47.649Z,4.80
2023-03-06T18:31:35.481Z,4.90
2023-03-06T18:34:04.773Z,5.07
2023-03-06T18:36:32.396Z,5.35
2023-03-06T18:39:00.645Z,5.73
2023-03-06T18:41:27.016Z,5.38
2023-03-06T18:43:55.588Z,5.88
2023-03-06T18:46:22.625Z,5.88
2023-03-06T18:48:49.096Z,5.35
2023-03-06T18:51:16.005Z,4.90
2023-03-06T18:53:43.454Z,5.03
2023-03-06T18:56:16.586Z,5.70
2023-03-06T18:58:43.879Z,6.65
2023-03-06T19:01:11.243Z,5.40
2023-03-06T19:03:37.768Z,6.20
2023-03-06T19:06:09.652Z,5.45
2023-03-06T19:08:37.163Z,5.93
2023-03-06T19:11:07.159Z,5.68
2023-03-06T19:13:33.703Z,5.53
2023-03-06T19:16:00.506Z,6.20
2023-03-06T19:18:28.194Z,6.40
2023-03-06T19:20:54.973Z,6.60
2023-03-06T19:23:22.063Z,5.97
2023-03-06T19:25:58.451Z,5.43
2023-03-06T19:28:25.795Z,6.37
2023-03-06T19:30:52.640Z,6.57
2023-03-06T19:33:19.684Z,5.95
2023-03-06T19:35:46.185Z,5.93
2023-03-06T19:38:12.821Z,5.63
2023-03-06T19:40:39.185Z,5.60
2023-03-06T19:43:05.542Z,5.50
2023-03-06T19:45:32.070Z,6.13
2023-03-06T19:48:00.842Z,6.70
2023-03-06T19:50:30.809Z,6.82
2023-03-06T19:52:57.489Z,6.43
2023-03-06T19:55:28.564Z,6.28
2023-03-06T19:57:54.935Z,6.30
2023-03-06T20:00:21.613Z,6.90
2023-03-06T20:02:48.017Z,7.03
2023-03-06T20:05:14.385Z,6.80
2023-03-06T20:07:40.909Z,7.50
2023-03-06T20:10:07.704Z,7.10
2023-03-06T20:12:34.841Z,6.05
2023-03-06T20:15:01.341Z,6.25
2023-03-06T20:17:27.828Z,5.40
2023-03-06T20:19:54.439Z,6.22
2023-03-06T20:22:21.183Z,5.93
2023-03-06T20:24:47.563Z,5.70
2023-03-06T20:27:13.974Z,5.72
2023-03-06T20:29:44.572Z,5.97
2023-03-06T20:32:13.033Z,5.80
2023-03-06T20:34:40.079Z,5.85
2023-03-06T20:37:07.883Z,6.40
2023-03-06T20:39:34.641Z,6.00
2023-03-06T20:42:01.751Z,5.57
2023-03-06T20:44:28.694Z,5.93
2023-03-06T20:46:55.249Z,5.63
2023-03-06T20:49:22.168Z,5.32
2023-03-06T20:51:49.915Z,5.97
2023-03-06T20:54:17.237Z,6.30
2023-03-06T20:56:47.834Z,6.57
2023-03-06T20:59:14.609Z,6.07
2023-03-06T21:01:43.692Z,6.80
2023-03-06T21:04:13.672Z,6.03
2023-03-06T21:06:42.414Z,6.30
2023-03-06T21:09:08.805Z,6.18
2023-03-06T21:11:35.495Z,5.55
2023-03-06T21:14:02.108Z,6.13
2023-03-06T21:16:30.393Z,6.13
2023-03-06T21:18:59.584Z,6.50
2023-03-06T21:21:29.744Z,6.63
2023-03-06T21:23:56.351Z,6.60
2023-03-06T21:26:25.029Z,6.85
2023-03-06T21:28:51.567Z,7.00
2023-03-06T21:31:19.861Z,6.30
2023-03-06T21:33:47.555Z,5.95
2023-03-06T21:36:14.686Z,6.75
2023-03-06T21:38:41.120Z,6.95
2023-03-06T21:41:16.725Z,7.25
2023-03-06T21:43:43.408Z,6.87
2023-03-06T21:46:11.218Z,7.03
2023-03-06T21:48:37.620Z,7.13
2023-03-06T21:51:10.732Z,6.97
2023-03-06T21:53:37.770Z,7.40
2023-03-06T21:56:04.953Z,7.00
2023-03-06T21:58:32.087Z,6.43
2023-03-06T22:00:58.839Z,7.35
2023-03-06T22:03:25.282Z,7.85
2023-03-06T22:05:52.660Z,8.73
2023-03-06T22:08:28.051Z,7.53
2023-03-06T22:10:54.411Z,7.90
2023-03-06T22:13:20.819Z,7.63
2023-03-06T22:15:53.364Z,7.60
2023-03-06T22:18:19.770Z,7.25
2023-03-06T22:20:46.169Z,7.60
2023-03-06T22:23:12.880Z,7.55
2023-03-06T22:25:39.287Z,7.57
2023-03-06T22:28:05.737Z,7.30
2023-03-06T22:30:32.109Z,6.75
2023-03-06T22:32:58.574Z,7.07
2023-03-06T22:35:25.061Z,6.63
2023-03-06T22:37:51.453Z,7.40
2023-03-06T22:40:17.908Z,6.95
2023-03-06T22:42:44.327Z,6.88
2023-03-06T22:45:11.244Z,7.10
2023-03-06T22:47:37.857Z,7.20
2023-03-06T22:50:05.911Z,6.55
2023-03-06T22:52:33.367Z,7.00
2023-03-06T22:54:59.713Z,6.75
2023-03-06T22:57:26.204Z,6.80
2023-03-06T22:59:52.542Z,7.20
2023-03-06T23:02:18.932Z,6.78
2023-03-06T23:04:52.116Z,6.45
2023-03-06T23:07:20.057Z,6.63
2023-03-06T23:09:46.737Z,6.47
2023-03-06T23:12:13.086Z,6.45
2023-03-06T23:14:39.516Z,6.20
2023-03-06T23:17:05.886Z,6.40
2023-03-06T23:19:32.249Z,6.65
2023-03-06T23:21:58.616Z,6.10
2023-03-06T23:24:25.178Z,7.00
2023-03-06T23:26:51.708Z,6.07
2023-03-06T23:29:18.072Z,5.68
2023-03-06T23:31:44.435Z,5.70
2023-03-06T23:34:11.504Z,5.93
2023-03-06T23:36:37.892Z,6.30
2023-03-06T23:39:04.314Z,6.30
2023-03-06T23:41:30.677Z,6.28
2023-03-06T23:43:58.428Z,5.68
2023-03-06T23:46:24.950Z,6.03
2023-03-06T23:48:52.245Z,6.40
2023-03-06T23:51:21.429Z,6.22
2023-03-06T23:53:53.064Z,6.03
2023-03-06T23:56:19.429Z,6.45
2023-03-06T23:58:45.818Z,6.10
